sensor_id;sensor_type;location;lat;lon;timestamp;pressure;altitude;pressure_sealevel;temperature;humidity
64551;BME280;74341;44.510;-123.270;2024-02-15T00:01:17;99893.66;;;4.57;100.00
64551;BME280;74341;44.510;-123.270;2024-02-15T00:03:43;99900.28;;;4.63;100.00
64551;BME280;74341;44.510;-123.270;2024-02-15T00:06:10;99884.56;;;4.66;100.00
64551;BME280;74341;44.510;-123.270;2024-02-15T00:08:36;99881.34;;;4.63;100.00
64551;BME280;74341;44.510;-123.270;2024-02-15T00:11:03;99884.34;;;4.60;100.00
64551;BME280;74341;44.510;-123.270;2024-02-15T00:13:29;99878.25;;;4.57;100.00
64551;BME280;74341;44.510;-123.270;2024-02-15T00:15:56;99886.13;;;4.51;100.00
64551;BME280;74341;44.510;-123.270;2024-02-15T00:18:22;99881.75;;;4.50;100.00
64551;BME280;74341;44.510;-123.270;2024-02-15T00:20:49;99878.50;;;4.46;100.00
64551;BME280;74341;44.510;-123.270;2024-02-15T00:23:16;99865.44;;;4.42;100.00
64551;BME280;74341;44.510;-123.270;2024-02-15T00:25:42;99868.44;;;4.38;100.00
64551;BME280;74341;44.510;-123.270;2024-02-15T00:28:12;99873.31;;;4.35;100.00
64551;BME280;74341;44.510;-123.270;2024-02-15T00:30:39;99869.78;;;4.34;100.00
64551;BME280;74341;44.510;-123.270;2024-02-15T00:33:06;99864.50;;;4.33;100.00
64551;BME280;74341;44.510;-123.270;2024-02-15T00:35:33;99868.25;;;4.32;100.00
64551;BME280;74341;44.510;-123.270;2024-02-15T00:37:59;99864.81;;;4.30;100.00
64551;BME280;74341;44.510;-123.270;2024-02-15T00:40:26;99860.28;;;4.30;100.00
64551;BME280;74341;44.510;-123.270;2024-02-15T00:42:53;99862.97;;;4.30;100.00
64551;BME280;74341;44.510;-123.270;2024-02-15T00:45:19;99864.66;;;4.31;100.00
64551;BME280;74341;44.510;-123.270;2024-02-15T00:47:45;99859.09;;;4.33;100.00
64551;BME280;74341;44.510;-123.270;2024-02-15T00:50:12;99869.78;;;4.34;100.00
64551;BME280;74341;44.510;-123.270;2024-02-15T00:52:39;99869.63;;;4.36;100.00
64551;BME280;74341;44.510;-123.270;2024-02-15T00:55:05;99857.63;;;4.38;100.00
64551;BME280;74341;44.510;-123.270;2024-02-15T00:57:31;99855.06;;;4.37;100.00
64551;BME280;74341;44.510;-123.270;2024-02-15T00:59:58;99853.22;;;4.37;100.00
64551;BME280;74341;44.510;-123.270;2024-02-15T01:02:25;99854.91;;;4.38;100.00
64551;BME280;74341;44.510;-123.270;2024-02-15T01:04:52;99845.25;;;4.36;100.00
64551;BME280;74341;44.510;-123.270;2024-02-15T01:07:19;99841.53;;;4.37;100.00
64551;BME280;74341;44.510;-123.270;2024-02-15T01:09:45;99834.44;;;4.36;100.00
64551;BME280;74341;44.510;-123.270;2024-02-15T01:12:11;99844.03;;;4.30;100.00
64551;BME280;74341;44.510;-123.270;2024-02-15T01:14:38;99857.72;;;4.29;100.00
64551;BME280;74341;44.510;-123.270;2024-02-15T01:17:04;99857.56;;;4.30;100.00
64551;BME280;74341;44.510;-123.270;2024-02-15T01:19:30;99865.53;;;4.32;100.00
64551;BME280;74341;44.510;-123.270;2024-02-15T01:21:56;99863.38;;;4.35;100.00
64551;BME280;74341;44.510;-123.270;2024-02-15T01:24:25;99866.06;;;4.35;100.00
64551;BME280;74341;44.510;-123.270;2024-02-15T01:26:52;99856.09;;;4.36;100.00
64551;BME280;74341;44.510;-123.270;2024-02-15T01:29:19;99861.81;;;4.33;100.00
64551;BME280;74341;44.510;-123.270;2024-02-15T01:31:45;99846.41;;;4.33;100.00
64551;BME280;74341;44.510;-123.270;2024-02-15T01:34:13;99850.97;;;4.33;100.00
64551;BME280;74341;44.510;-123.270;2024-02-15T01:36:40;99839.31;;;4.32;100.00
64551;BME280;74341;44.510;-123.270;2024-02-15T01:39:06;99847.50;;;4.23;100.00
64551;BME280;74341;44.510;-123.270;2024-02-15T01:41:33;99848.00;;;4.18;100.00
64551;BME280;74341;44.510;-123.270;2024-02-15T01:43:59;99852.34;;;4.11;100.00
64551;BME280;74341;44.510;-123.270;2024-02-15T01:46:26;99840.97;;;4.07;100.00
64551;BME280;74341;44.510;-123.270;2024-02-15T01:48:52;99854.94;;;4.03;100.00
64551;BME280;74341;44.510;-123.270;2024-02-15T01:51:19;99844.44;;;3.99;100.00
64551;BME280;74341;44.510;-123.270;2024-02-15T01:53:45;99846.44;;;3.97;100.00
64551;BME280;74341;44.510;-123.270;2024-02-15T01:56:13;99830.38;;;3.96;100.00
64551;BME280;74341;44.510;-123.270;2024-02-15T01:58:41;99834.09;;;3.95;100.00
64551;BME280;74341;44.510;-123.270;2024-02-15T02:01:09;99832.38;;;3.94;100.00
64551;BME280;74341;44.510;-123.270;2024-02-15T02:03:35;99841.53;;;3.93;100.00
64551;BME280;74341;44.510;-123.270;2024-02-15T02:06:02;99843.19;;;3.94;100.00
64551;BME280;74341;44.510;-123.270;2024-02-15T02:08:29;99857.25;;;3.97;100.00
64551;BME280;74341;44.510;-123.270;2024-02-15T02:10:55;99870.19;;;4.04;100.00
64551;BME280;74341;44.510;-123.270;2024-02-15T02:13:23;99863.69;;;4.14;100.00
64551;BME280;74341;44.510;-123.270;2024-02-15T02:15:49;99877.06;;;4.16;100.00
64551;BME280;74341;44.510;-123.270;2024-02-15T02:18:17;99870.47;;;4.18;100.00
64551;BME280;74341;44.510;-123.270;2024-02-15T02:20:45;99863.59;;;4.24;100.00
64551;BME280;74341;44.510;-123.270;2024-02-15T02:23:16;99867.16;;;4.25;100.00
64551;BME280;74341;44.510;-123.270;2024-02-15T02:25:44;99874.09;;;4.27;100.00
64551;BME280;74341;44.510;-123.270;2024-02-15T02:28:14;99869.38;;;4.29;100.00
64551;BME280;74341;44.510;-123.270;2024-02-15T02:30:42;99866.69;;;4.29;100.00
64551;BME280;74341;44.510;-123.270;2024-02-15T02:33:12;99875.50;;;4.31;100.00
64551;BME280;74341;44.510;-123.270;2024-02-15T02:35:45;99865.19;;;4.35;100.00
64551;BME280;74341;44.510;-123.270;2024-02-15T02:38:12;99855.78;;;4.39;100.00
64551;BME280;74341;44.510;-123.270;2024-02-15T02:40:39;99848.34;;;4.41;100.00
64551;BME280;74341;44.510;-123.270;2024-02-15T02:43:05;99842.25;;;4.39;100.00
64551;BME280;74341;44.510;-123.270;2024-02-15T02:45:32;99852.53;;;4.35;100.00
64551;BME280;74341;44.510;-123.270;2024-02-15T02:47:58;99854.72;;;4.32;100.00
64551;BME280;74341;44.510;-123.270;2024-02-15T02:50:25;99847.75;;;4.29;100.00
64551;BME280;74341;44.510;-123.270;2024-02-15T02:52:52;99844.34;;;4.27;100.00
64551;BME280;74341;44.510;-123.270;2024-02-15T02:55:18;99840.25;;;4.23;100.00
64551;BME280;74341;44.510;-123.270;2024-02-15T02:57:45;99830.28;;;4.24;100.00
64551;BME280;74341;44.510;-123.270;2024-02-15T03:00:13;99818.63;;;4.23;100.00
64551;BME280;74341;44.510;-123.270;2024-02-15T03:02:43;99816.06;;;4.22;100.00
64551;BME280;74341;44.510;-123.270;2024-02-15T03:05:09;99807.25;;;4.19;100.00
64551;BME280;74341;44.510;-123.270;2024-02-15T03:07:37;99819.22;;;4.17;100.00
64551;BME280;74341;44.510;-123.270;2024-02-15T03:10:05;99822.81;;;4.17;100.00
64551;BME280;74341;44.510;-123.270;2024-02-15T03:12:37;99816.38;;;4.18;100.00
64551;BME280;74341;44.510;-123.270;2024-02-15T03:15:04;99807.94;;;4.22;100.00
64551;BME280;74341;44.510;-123.270;2024-02-15T03:17:40;99808.34;;;4.27;100.00
64551;BME280;74341;44.510;-123.270;2024-02-15T03:20:08;99807.38;;;4.36;100.00
64551;BME280;74341;44.510;-123.270;2024-02-15T03:22:38;99809.97;;;4.46;100.00
64551;BME280;74341;44.510;-123.270;2024-02-15T03:25:08;99811.09;;;4.61;100.00
64551;BME280;74341;44.510;-123.270;2024-02-15T03:27:36;99809.06;;;4.89;100.00
64551;BME280;74341;44.510;-123.270;2024-02-15T03:30:06;99807.81;;;5.10;100.00
64551;BME280;74341;44.510;-123.270;2024-02-15T03:32:32;99808.06;;;5.33;100.00
64551;BME280;74341;44.510;-123.270;2024-02-15T03:34:59;99809.78;;;5.50;100.00
64551;BME280;74341;44.510;-123.270;2024-02-15T03:37:27;99812.38;;;5.68;100.00
64551;BME280;74341;44.510;-123.270;2024-02-15T03:39:53;99806.97;;;5.77;100.00
64551;BME280;74341;44.510;-123.270;2024-02-15T03:42:19;99823.94;;;5.87;100.00
64551;BME280;74341;44.510;-123.270;2024-02-15T03:44:46;99820.25;;;5.96;100.00
64551;BME280;74341;44.510;-123.270;2024-02-15T03:47:13;99824.50;;;6.07;100.00
64551;BME280;74341;44.510;-123.270;2024-02-15T03:49:41;99816.53;;;6.14;100.00
64551;BME280;74341;44.510;-123.270;2024-02-15T03:52:08;99825.03;;;6.19;100.00
64551;BME280;74341;44.510;-123.270;2024-02-15T03:54:36;99818.41;;;6.21;100.00
64551;BME280;74341;44.510;-123.270;2024-02-15T03:57:02;99826.22;;;6.24;100.00
64551;BME280;74341;44.510;-123.270;2024-02-15T03:59:29;99828.59;;;6.27;100.00
64551;BME280;74341;44.510;-123.270;2024-02-15T04:01:58;99835.72;;;6.28;100.00
64551;BME280;74341;44.510;-123.270;2024-02-15T04:04:24;99840.97;;;6.30;100.00
64551;BME280;74341;44.510;-123.270;2024-02-15T04:06:51;99846.41;;;6.30;100.00
64551;BME280;74341;44.510;-123.270;2024-02-15T04:09:18;99847.25;;;6.31;100.00
64551;BME280;74341;44.510;-123.270;2024-02-15T04:11:47;99852.50;;;6.32;100.00
64551;BME280;74341;44.510;-123.270;2024-02-15T04:14:19;99861.53;;;6.33;100.00
64551;BME280;74341;44.510;-123.270;2024-02-15T04:16:45;99854.22;;;6.33;100.00
64551;BME280;74341;44.510;-123.270;2024-02-15T04:19:12;99858.81;;;6.33;100.00
64551;BME280;74341;44.510;-123.270;2024-02-15T04:21:38;99852.50;;;6.32;100.00
64551;BME280;74341;44.510;-123.270;2024-02-15T04:24:06;99852.50;;;6.32;100.00
64551;BME280;74341;44.510;-123.270;2024-02-15T04:26:32;99855.72;;;6.36;100.00
64551;BME280;74341;44.510;-123.270;2024-02-15T04:28:59;99851.34;;;6.35;100.00
64551;BME280;74341;44.510;-123.270;2024-02-15T04:31:25;99838.94;;;6.32;100.00
64551;BME280;74341;44.510;-123.270;2024-02-15T04:33:55;99839.59;;;6.34;100.00
64551;BME280;74341;44.510;-123.270;2024-02-15T04:36:21;99844.34;;;6.32;100.00
64551;BME280;74341;44.510;-123.270;2024-02-15T04:38:52;99841.31;;;6.35;100.00
64551;BME280;74341;44.510;-123.270;2024-02-15T04:41:19;99838.59;;;6.35;100.00
64551;BME280;74341;44.510;-123.270;2024-02-15T04:43:51;99836.06;;;6.34;100.00
64551;BME280;74341;44.510;-123.270;2024-02-15T04:46:20;99830.63;;;6.34;100.00
64551;BME280;74341;44.510;-123.270;2024-02-15T04:48:50;99838.59;;;6.35;100.00
64551;BME280;74341;44.510;-123.270;2024-02-15T04:51:17;99847.25;;;6.39;100.00
64551;BME280;74341;44.510;-123.270;2024-02-15T04:53:46;99845.56;;;6.38;100.00
64551;BME280;74341;44.510;-123.270;2024-02-15T04:56:13;99829.28;;;6.38;100.00
64551;BME280;74341;44.510;-123.270;2024-02-15T04:58:40;99835.56;;;6.38;100.00
64551;BME280;74341;44.510;-123.270;2024-02-15T05:01:17;99840.97;;;6.38;100.00
64551;BME280;74341;44.510;-123.270;2024-02-15T05:03:44;99842.66;;;6.39;100.00
64551;BME280;74341;44.510;-123.270;2024-02-15T05:06:10;99846.25;;;6.40;100.00
64551;BME280;74341;44.510;-123.270;2024-02-15T05:08:41;99857.94;;;6.40;100.00
64551;BME280;74341;44.510;-123.270;2024-02-15T05:11:11;99853.34;;;6.41;100.00
64551;BME280;74341;44.510;-123.270;2024-02-15T05:13:44;99859.47;;;6.43;100.00
64551;BME280;74341;44.510;-123.270;2024-02-15T05:16:11;99860.50;;;6.42;100.00
64551;BME280;74341;44.510;-123.270;2024-02-15T05:18:37;99870.53;;;6.41;100.00
64551;BME280;74341;44.510;-123.270;2024-02-15T05:21:06;99873.22;;;6.41;100.00
64551;BME280;74341;44.510;-123.270;2024-02-15T05:23:35;99873.41;;;6.40;100.00
64551;BME280;74341;44.510;-123.270;2024-02-15T05:26:03;99877.78;;;6.41;100.00
64551;BME280;74341;44.510;-123.270;2024-02-15T05:28:29;99883.22;;;6.41;100.00
64551;BME280;74341;44.510;-123.270;2024-02-15T05:31:14;99890.38;;;6.42;100.00
64551;BME280;74341;44.510;-123.270;2024-02-15T05:33:44;99880.34;;;6.42;100.00
64551;BME280;74341;44.510;-123.270;2024-02-15T05:36:11;99884.75;;;6.43;100.00
64551;BME280;74341;44.510;-123.270;2024-02-15T05:38:37;99878.66;;;6.41;100.00
64551;BME280;74341;44.510;-123.270;2024-02-15T05:41:04;99873.41;;;6.40;100.00
64551;BME280;74341;44.510;-123.270;2024-02-15T05:43:31;99864.22;;;6.41;100.00
64551;BME280;74341;44.510;-123.270;2024-02-15T05:45:58;99870.53;;;6.41;100.00
64551;BME280;74341;44.510;-123.270;2024-02-15T05:48:26;99856.94;;;6.41;100.00
64551;BME280;74341;44.510;-123.270;2024-02-15T05:50:55;99850.63;;;6.41;100.00
64551;BME280;74341;44.510;-123.270;2024-02-15T05:53:23;99845.38;;;6.39;100.00
64551;BME280;74341;44.510;-123.270;2024-02-15T05:55:50;99845.75;;;6.36;100.00
64551;BME280;74341;44.510;-123.270;2024-02-15T05:58:16;99858.59;;;6.34;100.00
64551;BME280;74341;44.510;-123.270;2024-02-15T06:00:43;99858.44;;;6.36;100.00
64551;BME280;74341;44.510;-123.270;2024-02-15T06:03:16;99848.78;;;6.33;100.00
64551;BME280;74341;44.510;-123.270;2024-02-15T06:05:43;99856.25;;;6.31;100.00
64551;BME280;74341;44.510;-123.270;2024-02-15T06:08:11;99849.13;;;6.30;100.00
64551;BME280;74341;44.510;-123.270;2024-02-15T06:10:40;99852.66;;;6.31;100.00
64551;BME280;74341;44.510;-123.270;2024-02-15T06:13:07;99872.03;;;6.27;100.00
64551;BME280;74341;44.510;-123.270;2024-02-15T06:15:36;99863.03;;;6.27;100.00
64551;BME280;74341;44.510;-123.270;2024-02-15T06:18:02;99860.00;;;6.22;100.00
64551;BME280;74341;44.510;-123.270;2024-02-15T06:20:35;99869.47;;;6.18;100.00
64551;BME280;74341;44.510;-123.270;2024-02-15T06:23:02;99867.78;;;6.17;100.00
64551;BME280;74341;44.510;-123.270;2024-02-15T06:25:34;99872.69;;;6.13;100.00
64551;BME280;74341;44.510;-123.270;2024-02-15T06:28:00;99886.09;;;6.15;100.00
64551;BME280;74341;44.510;-123.270;2024-02-15T06:30:41;99880.84;;;6.13;100.00
64551;BME280;74341;44.510;-123.270;2024-02-15T06:33:26;99886.09;;;6.15;100.00
64551;BME280;74341;44.510;-123.270;2024-02-15T06:36:10;99899.69;;;6.15;100.00
64551;BME280;74341;44.510;-123.270;2024-02-15T06:38:55;99890.00;;;6.12;100.00
64551;BME280;74341;44.510;-123.270;2024-02-15T06:41:39;99891.69;;;6.13;100.00
64551;BME280;74341;44.510;-123.270;2024-02-15T06:44:06;99891.69;;;6.13;100.00
64551;BME280;74341;44.510;-123.270;2024-02-15T06:46:33;99887.13;;;6.14;100.00
64551;BME280;74341;44.510;-123.270;2024-02-15T06:48:59;99874.53;;;6.13;100.00
64551;BME280;74341;44.510;-123.270;2024-02-15T06:51:26;99866.41;;;6.13;100.00
64551;BME280;74341;44.510;-123.270;2024-02-15T06:53:52;99858.97;;;6.15;100.00
64551;BME280;74341;44.510;-123.270;2024-02-15T06:56:22;99865.25;;;6.15;100.00
64551;BME280;74341;44.510;-123.270;2024-02-15T06:58:50;99864.19;;;6.16;100.00
64551;BME280;74341;44.510;-123.270;2024-02-15T07:01:16;99867.78;;;6.17;100.00
64551;BME280;74341;44.510;-123.270;2024-02-15T07:03:43;99879.31;;;6.19;100.00
64551;BME280;74341;44.510;-123.270;2024-02-15T07:06:11;99881.00;;;6.20;100.00
64551;BME280;74341;44.510;-123.270;2024-02-15T07:08:40;99889.66;;;6.23;100.00
64551;BME280;74341;44.510;-123.270;2024-02-15T07:11:07;99887.81;;;6.24;100.00
64551;BME280;74341;44.510;-123.270;2024-02-15T07:13:35;99880.34;;;6.26;100.00
64551;BME280;74341;44.510;-123.270;2024-02-15T07:16:08;99892.88;;;6.27;100.00
64551;BME280;74341;44.510;-123.270;2024-02-15T07:18:34;99889.16;;;6.28;100.00
64551;BME280;74341;44.510;-123.270;2024-02-15T07:21:00;99894.59;;;6.28;100.00
64551;BME280;74341;44.510;-123.270;2024-02-15T07:23:29;99893.91;;;6.26;100.00
64551;BME280;74341;44.510;-123.270;2024-02-15T07:25:55;99884.72;;;6.27;100.00
64551;BME280;74341;44.510;-123.270;2024-02-15T07:28:21;99894.59;;;6.28;100.00
64551;BME280;74341;44.510;-123.270;2024-02-15T07:30:48;99897.31;;;6.28;100.00
64551;BME280;74341;44.510;-123.270;2024-02-15T07:33:16;99893.06;;;6.25;100.00
64551;BME280;74341;44.510;-123.270;2024-02-15T07:35:43;99890.69;;;6.22;100.00
64551;BME280;74341;44.510;-123.270;2024-02-15T07:38:09;99889.50;;;6.25;100.00
64551;BME280;74341;44.510;-123.270;2024-02-15T07:40:37;99891.34;;;6.24;100.00
64551;BME280;74341;44.510;-123.270;2024-02-15T07:43:05;99895.94;;;6.24;100.00
64551;BME280;74341;44.510;-123.270;2024-02-15T07:45:34;99891.19;;;6.26;100.00
64551;BME280;74341;44.510;-123.270;2024-02-15T07:48:04;99885.09;;;6.24;100.00
64551;BME280;74341;44.510;-123.270;2024-02-15T07:50:31;99882.53;;;6.22;100.00
64551;BME280;74341;44.510;-123.270;2024-02-15T07:52:57;99888.31;;;6.19;100.00
64551;BME280;74341;44.510;-123.270;2024-02-15T07:55:24;99883.03;;;6.18;100.00
64551;BME280;74341;44.510;-123.270;2024-02-15T07:57:53;99883.03;;;6.18;100.00
64551;BME280;74341;44.510;-123.270;2024-02-15T08:00:19;99885.06;;;6.16;100.00
64551;BME280;74341;44.510;-123.270;2024-02-15T08:02:46;99878.47;;;6.18;100.00
64551;BME280;74341;44.510;-123.270;2024-02-15T08:05:12;99878.47;;;6.18;100.00
64551;BME280;74341;44.510;-123.270;2024-02-15T08:07:44;99881.53;;;6.15;100.00
64551;BME280;74341;44.510;-123.270;2024-02-15T08:10:13;99888.47;;;6.18;100.00
64551;BME280;74341;44.510;-123.270;2024-02-15T08:12:44;99882.34;;;6.16;100.00
64551;BME280;74341;44.510;-123.270;2024-02-15T08:15:11;99885.91;;;6.16;100.00
64551;BME280;74341;44.510;-123.270;2024-02-15T08:17:39;99878.13;;;6.13;100.00
64551;BME280;74341;44.510;-123.270;2024-02-15T08:20:15;99887.63;;;6.17;100.00
64551;BME280;74341;44.510;-123.270;2024-02-15T08:22:47;99886.63;;;6.18;100.00
64551;BME280;74341;44.510;-123.270;2024-02-15T08:25:14;99888.47;;;6.18;100.00
64551;BME280;74341;44.510;-123.270;2024-02-15T08:27:49;99887.47;;;6.19;100.00
64551;BME280;74341;44.510;-123.270;2024-02-15T08:30:16;99883.72;;;6.20;100.00
64551;BME280;74341;44.510;-123.270;2024-02-15T08:32:43;99878.28;;;6.20;100.00
64551;BME280;74341;44.510;-123.270;2024-02-15T08:35:14;99876.44;;;6.20;100.00
64551;BME280;74341;44.510;-123.270;2024-02-15T08:37:41;99870.13;;;6.20;100.00
64551;BME280;74341;44.510;-123.270;2024-02-15T08:40:09;99887.13;;;6.22;100.00
64551;BME280;74341;44.510;-123.270;2024-02-15T08:42:40;99876.28;;;6.22;100.00
64551;BME280;74341;44.510;-123.270;2024-02-15T08:45:07;99871.19;;;6.19;100.00
64551;BME280;74341;44.510;-123.270;2024-02-15T08:47:42;99871.34;;;6.17;100.00
64551;BME280;74341;44.510;-123.270;2024-02-15T08:50:09;99869.47;;;6.18;100.00
64551;BME280;74341;44.510;-123.270;2024-02-15T08:52:39;99863.38;;;6.16;100.00
64551;BME280;74341;44.510;-123.270;2024-02-15T08:55:10;99876.94;;;6.16;100.00
64551;BME280;74341;44.510;-123.270;2024-02-15T08:57:37;99865.56;;;6.12;100.00
64551;BME280;74341;44.510;-123.270;2024-02-15T09:00:07;99872.69;;;6.13;100.00
64551;BME280;74341;44.510;-123.270;2024-02-15T09:02:48;99874.53;;;6.13;100.00
64551;BME280;74341;44.510;-123.270;2024-02-15T09:05:19;99872.00;;;6.11;100.00
64551;BME280;74341;44.510;-123.270;2024-02-15T09:07:48;99872.50;;;6.06;100.00
64551;BME280;74341;44.510;-123.270;2024-02-15T09:10:16;99880.66;;;6.06;100.00
64551;BME280;74341;44.510;-123.270;2024-02-15T09:12:45;99871.69;;;6.06;100.00
64551;BME280;74341;44.510;-123.270;2024-02-15T09:15:15;99884.38;;;6.05;100.00
64551;BME280;74341;44.510;-123.270;2024-02-15T09:17:42;99884.53;;;6.04;100.00
64551;BME280;74341;44.510;-123.270;2024-02-15T09:20:11;99891.00;;;6.03;100.00
64551;BME280;74341;44.510;-123.270;2024-02-15T09:22:49;99887.25;;;6.04;100.00
64551;BME280;74341;44.510;-123.270;2024-02-15T09:25:16;99883.84;;;6.02;100.00
64551;BME280;74341;44.510;-123.270;2024-02-15T09:27:42;99887.59;;;6.01;100.00
64551;BME280;74341;44.510;-123.270;2024-02-15T09:30:10;99905.72;;;6.00;100.00
64551;BME280;74341;44.510;-123.270;2024-02-15T09:32:38;99899.47;;;6.00;100.00
64551;BME280;74341;44.510;-123.270;2024-02-15T09:35:05;99914.56;;;6.02;100.00
64551;BME280;74341;44.510;-123.270;2024-02-15T09:37:35;99907.28;;;6.03;100.00
64551;BME280;74341;44.510;-123.270;2024-02-15T09:40:03;99905.25;;;6.05;100.00
64551;BME280;74341;44.510;-123.270;2024-02-15T09:42:33;99911.00;;;6.02;100.00
64551;BME280;74341;44.510;-123.270;2024-02-15T09:45:01;99912.69;;;6.03;100.00
64551;BME280;74341;44.510;-123.270;2024-02-15T09:47:35;99924.56;;;6.02;100.00
64551;BME280;74341;44.510;-123.270;2024-02-15T09:50:13;99932.69;;;6.02;100.00
64551;BME280;74341;44.510;-123.270;2024-02-15T09:52:42;99933.56;;;6.02;100.00
64551;BME280;74341;44.510;-123.270;2024-02-15T09:55:10;99940.84;;;6.02;100.00
64551;BME280;74341;44.510;-123.270;2024-02-15T09:57:44;99939.16;;;6.01;100.00
64551;BME280;74341;44.510;-123.270;2024-02-15T10:00:13;99946.44;;;6.00;100.00
64551;BME280;74341;44.510;-123.270;2024-02-15T10:02:50;99954.91;;;5.97;100.00
64551;BME280;74341;44.510;-123.270;2024-02-15T10:05:21;99962.72;;;6.00;100.00
64551;BME280;74341;44.510;-123.270;2024-02-15T10:07:48;99965.63;;;5.99;100.00
64551;BME280;74341;44.510;-123.270;2024-02-15T10:10:24;99967.63;;;5.97;100.00
64551;BME280;74341;44.510;-123.270;2024-02-15T10:12:53;99967.44;;;5.98;100.00
64551;BME280;74341;44.510;-123.270;2024-02-15T10:15:38;99974.75;;;5.98;100.00
64551;BME280;74341;44.510;-123.270;2024-02-15T10:18:08;99982.91;;;5.98;100.00
64551;BME280;74341;44.510;-123.270;2024-02-15T10:20:40;99989.00;;;6.00;100.00
64551;BME280;74341;44.510;-123.270;2024-02-15T10:23:14;99991.56;;;6.01;100.00
64551;BME280;74341;44.510;-123.270;2024-02-15T10:25:43;99995.97;;;6.02;100.00
64551;BME280;74341;44.510;-123.270;2024-02-15T10:28:11;99996.31;;;5.99;100.00
64551;BME280;74341;44.510;-123.270;2024-02-15T10:30:42;100015.28;;;5.99;100.00
64551;BME280;74341;44.510;-123.270;2024-02-15T10:33:09;100020.72;;;5.99;100.00
64551;BME280;74341;44.510;-123.270;2024-02-15T10:35:36;100041.41;;;6.00;100.00
64551;BME280;74341;44.510;-123.270;2024-02-15T10:38:09;100035.13;;;6.00;100.00
64551;BME280;74341;44.510;-123.270;2024-02-15T10:40:40;100043.28;;;6.00;100.00
64551;BME280;74341;44.510;-123.270;2024-02-15T10:43:09;100047.00;;;5.99;100.00
64551;BME280;74341;44.510;-123.270;2024-02-15T10:45:39;100047.84;;;5.99;100.00
64551;BME280;74341;44.510;-123.270;2024-02-15T10:48:08;100056.16;;;5.98;100.00
64551;BME280;74341;44.510;-123.270;2024-02-15T10:50:35;100061.75;;;5.96;100.00
64551;BME280;74341;44.510;-123.270;2024-02-15T10:56:26;100061.03;;;5.94;100.00
64551;BME280;74341;44.510;-123.270;2024-02-15T10:59:18;100057.78;;;5.90;100.00
64551;BME280;74341;44.510;-123.270;2024-02-15T11:01:46;100066.91;;;5.89;100.00
64551;BME280;74341;44.510;-123.270;2024-02-15T11:04:20;100074.06;;;5.90;100.00
64551;BME280;74341;44.510;-123.270;2024-02-15T11:06:55;100080.66;;;5.88;100.00
64551;BME280;74341;44.510;-123.270;2024-02-15T11:09:21;100080.47;;;5.89;100.00
64551;BME280;74341;44.510;-123.270;2024-02-15T11:11:49;100080.31;;;5.91;100.00
64551;BME280;74341;44.510;-123.270;2024-02-15T11:14:31;100077.63;;;5.91;100.00
64551;BME280;74341;44.510;-123.270;2024-02-15T11:17:00;100090.50;;;5.89;100.00
64551;BME280;74341;44.510;-123.270;2024-02-15T11:22:14;100101.19;;;5.90;100.00
64551;BME280;74341;44.510;-123.270;2024-02-15T11:24:53;100113.03;;;5.89;100.00
64551;BME280;74341;44.510;-123.270;2024-02-15T11:27:27;100097.63;;;5.90;100.00
64551;BME280;74341;44.510;-123.270;2024-02-15T11:32:50;100126.59;;;5.89;100.00
64551;BME280;74341;44.510;-123.270;2024-02-15T11:35:23;100142.72;;;5.91;100.00
64551;BME280;74341;44.510;-123.270;2024-02-15T11:40:26;100151.75;;;5.92;100.00
64551;BME280;74341;44.510;-123.270;2024-02-15T11:43:00;100153.59;;;5.91;100.00
64551;BME280;74341;44.510;-123.270;2024-02-15T11:45:27;100155.47;;;5.90;100.00
64551;BME280;74341;44.510;-123.270;2024-02-15T11:48:03;100169.03;;;5.90;100.00
64551;BME280;74341;44.510;-123.270;2024-02-15T11:50:37;100180.03;;;5.89;100.00
64551;BME280;74341;44.510;-123.270;2024-02-15T11:53:08;100178.31;;;5.88;100.00
64551;BME280;74341;44.510;-123.270;2024-02-15T11:55:36;100189.16;;;5.88;100.00
64551;BME280;74341;44.510;-123.270;2024-02-15T11:58:04;100185.59;;;5.87;100.00
64551;BME280;74341;44.510;-123.270;2024-02-15T12:00:31;100193.75;;;5.87;100.00
64551;BME280;74341;44.510;-123.270;2024-02-15T12:03:17;100197.31;;;5.88;100.00
64551;BME280;74341;44.510;-123.270;2024-02-15T12:06:02;100203.59;;;5.88;100.00
64551;BME280;74341;44.510;-123.270;2024-02-15T12:08:49;100204.44;;;5.89;100.00
64551;BME280;74341;44.510;-123.270;2024-02-15T12:11:34;100203.75;;;5.87;100.00
64551;BME280;74341;44.510;-123.270;2024-02-15T12:14:19;100221.03;;;5.86;100.00
64551;BME280;74341;44.510;-123.270;2024-02-15T12:17:07;100222.06;;;5.85;100.00
64551;BME280;74341;44.510;-123.270;2024-02-15T12:19:53;100224.22;;;5.81;100.00
64551;BME280;74341;44.510;-123.270;2024-02-15T12:22:47;100232.38;;;5.81;100.00
64551;BME280;74341;44.510;-123.270;2024-02-15T12:25:18;100245.94;;;5.81;100.00
64551;BME280;74341;44.510;-123.270;2024-02-15T12:27:56;100260.34;;;5.82;100.00
64551;BME280;74341;44.510;-123.270;2024-02-15T12:30:23;100258.63;;;5.81;100.00
64551;BME280;74341;44.510;-123.270;2024-02-15T12:32:51;100272.19;;;5.81;100.00
64551;BME280;74341;44.510;-123.270;2024-02-15T12:35:22;100271.34;;;5.80;100.00
64551;BME280;74341;44.510;-123.270;2024-02-15T12:38:02;100284.91;;;5.80;100.00
64551;BME280;74341;44.510;-123.270;2024-02-15T12:40:38;100289.63;;;5.78;100.00
64551;BME280;74341;44.510;-123.270;2024-02-15T12:43:08;100303.22;;;5.78;100.00
64551;BME280;74341;44.510;-123.270;2024-02-15T12:45:39;100297.94;;;5.77;100.00
64551;BME280;74341;44.510;-123.270;2024-02-15T12:48:07;100316.06;;;5.76;100.00
64551;BME280;74341;44.510;-123.270;2024-02-15T12:50:35;100313.50;;;5.75;100.00